Time;durP1;ratioP1;P1;durP2;ratioP2;P2;SDS_P1;SDS_P2;PMS_P1;PMS_P2;Temp;Humidity;BMP_temperature;BMP_pressure;BME280_temperature;BME280_humidity;BME280_pressure;Samples;Min_cycle;Max_cycle;Signal;HPM_P1;HPM_P2
2022/09/30 00:00:20;;;;;;;3.05;1.23;;;14.90;65.40;;;;;;2352751;53;20945;-74
2022/09/30 00:02:46;;;;;;;2.85;1.23;;;14.90;65.40;;;;;;2367980;53;21840;-74
2022/09/30 00:05:13;;;;;;;2.70;1.35;;;14.90;65.30;;;;;;2423923;52;20941;-72
2022/09/30 00:07:42;;;;;;;3.37;1.27;;;14.90;65.20;;;;;;2365712;53;21100;-72
2022/09/30 00:10:08;;;;;;;2.33;1.12;;;14.90;65.10;;;;;;2365132;53;20993;-74
2022/09/30 00:12:35;;;;;;;2.72;1.23;;;14.90;65.10;;;;;;2619908;52;21446;-73
2022/09/30 00:15:02;;;;;;;2.50;1.15;;;14.80;65.00;;;;;;2608110;52;20905;-72
2022/09/30 00:17:28;;;;;;;2.53;1.30;;;14.80;65.00;;;;;;2369513;53;21049;-74
2022/09/30 00:19:55;;;;;;;2.30;1.20;;;14.80;65.10;;;;;;2598190;53;20974;-74
2022/09/30 00:22:21;;;;;;;2.80;1.33;;;14.80;65.20;;;;;;2365577;53;20924;-73
2022/09/30 00:24:47;;;;;;;2.53;1.40;;;14.80;65.20;;;;;;2360469;53;21027;-73
2022/09/30 00:27:17;;;;;;;2.70;1.45;;;14.70;65.20;;;;;;2356035;53;21000;-73
2022/09/30 00:29:44;;;;;;;3.25;1.40;;;14.70;65.40;;;;;;2358786;53;21314;-73
2022/09/30 00:32:10;;;;;;;3.17;1.30;;;14.70;65.50;;;;;;2516500;52;21248;-73
2022/09/30 00:34:36;;;;;;;3.67;1.80;;;14.70;65.50;;;;;;2365730;53;21797;-73
2022/09/30 00:37:04;;;;;;;2.92;1.48;;;14.70;65.60;;;;;;2364711;53;21315;-73
2022/09/30 00:39:30;;;;;;;2.50;1.37;;;14.70;65.60;;;;;;2585762;53;20941;-71
2022/09/30 00:41:58;;;;;;;2.80;1.30;;;14.70;65.70;;;;;;2429477;53;20969;-74
2022/09/30 00:44:54;;;;;;;2.75;1.50;;;14.70;65.70;;;;;;2365271;53;20977;-72
2022/09/30 00:47:28;;;;;;;2.40;1.25;;;14.70;65.50;;;;;;2368056;53;21561;-74
2022/09/30 00:49:54;;;;;;;2.75;1.40;;;14.70;65.60;;;;;;2358559;53;20988;-73
2022/09/30 00:52:21;;;;;;;2.55;1.20;;;14.70;65.70;;;;;;2364155;53;21009;-74
2022/09/30 00:54:50;;;;;;;2.60;1.40;;;14.70;65.70;;;;;;2611806;52;20939;-74
2022/09/30 00:57:17;;;;;;;2.90;1.37;;;14.70;65.60;;;;;;2546501;52;21462;-72
2022/09/30 00:59:48;;;;;;;2.15;1.15;;;14.70;65.60;;;;;;2433564;53;21001;-74
2022/09/30 01:02:15;;;;;;;2.60;1.30;;;14.70;65.50;;;;;;2362097;53;21017;-74
2022/09/30 01:04:41;;;;;;;2.83;1.50;;;14.70;65.60;;;;;;2338026;54;21083;-73
2022/09/30 01:07:10;;;;;;;3.37;1.60;;;14.60;65.60;;;;;;2600591;52;21725;-74
2022/09/30 01:09:38;;;;;;;2.62;1.35;;;14.70;65.80;;;;;;2370667;53;21103;-73
2022/09/30 01:12:06;;;;;;;3.22;1.50;;;14.60;65.70;;;;;;2571728;52;20953;-74
2022/09/30 01:14:32;;;;;;;3.10;1.50;;;14.60;65.70;;;;;;2403871;53;20981;-72
2022/09/30 01:17:10;;;;;;;3.30;1.55;;;14.60;65.70;;;;;;2618320;52;20946;-72
2022/09/30 01:21:18;;;;;;;3.70;1.80;;;14.60;65.80;;;;;;2608497;52;21016;-73
2022/09/30 01:27:11;;;;;;;2.90;1.35;;;14.70;65.80;;;;;;2517661;52;21798;-72
2022/09/30 01:33:33;;;;;;;3.20;1.20;;;14.70;65.80;;;;;;2595080;52;21008;-74
2022/09/30 01:36:13;;;;;;;2.83;1.10;;;14.70;65.30;;;;;;2363463;53;20965;-73
2022/09/30 01:40:47;;;;;;;2.67;1.20;;;14.60;65.30;;;;;;2498489;52;21034;-72
2022/09/30 01:44:12;;;;;;;2.55;1.12;;;14.60;65.30;;;;;;2357250;53;21449;-72
2022/09/30 01:46:44;;;;;;;2.80;1.30;;;14.60;65.50;;;;;;2369879;53;21564;-71
2022/09/30 01:49:34;;;;;;;2.20;1.10;;;14.50;65.60;;;;;;2606573;52;21855;-73
2022/09/30 01:52:15;;;;;;;2.03;1.10;;;14.50;65.80;;;;;;2364413;53;21002;-73
2022/09/30 01:55:07;;;;;;;3.12;1.60;;;14.50;65.70;;;;;;2370196;53;20958;-75
2022/09/30 01:58:25;;;;;;;2.50;1.10;;;14.50;65.60;;;;;;2365176;53;20980;-72
2022/09/30 02:00:54;;;;;;;2.50;1.20;;;14.50;65.60;;;;;;2610363;52;20965;-74
2022/09/30 02:03:30;;;;;;;2.20;1.00;;;14.50;65.80;;;;;;2350952;53;20970;-72
2022/09/30 02:06:09;;;;;;;2.78;1.27;;;14.50;65.80;;;;;;2362526;53;21004;-73
2022/09/30 02:08:41;;;;;;;4.15;1.23;;;14.50;65.80;;;;;;2363840;53;20930;-74
2022/09/30 02:11:31;;;;;;;2.28;1.05;;;14.50;65.80;;;;;;2368541;53;21841;-75
2022/09/30 02:14:26;;;;;;;4.43;1.65;;;14.50;65.90;;;;;;2367172;53;21855;-74
2022/09/30 02:18:29;;;;;;;3.25;1.42;;;14.50;66.00;;;;;;2362987;53;20922;-73
2022/09/30 02:20:58;;;;;;;2.28;1.00;;;14.50;66.00;;;;;;2616926;52;20935;-73
2022/09/30 02:23:29;;;;;;;2.87;1.23;;;14.50;66.10;;;;;;2609370;52;21831;-74
2022/09/30 02:26:04;;;;;;;2.22;1.23;;;14.50;66.10;;;;;;2456176;52;20945;-73
2022/09/30 02:28:30;;;;;;;3.35;1.33;;;14.50;66.10;;;;;;2368632;53;21729;-72
2022/09/30 02:30:58;;;;;;;2.55;1.15;;;14.50;66.00;;;;;;2343880;53;20967;-72
2022/09/30 02:33:33;;;;;;;2.70;1.20;;;14.50;65.90;;;;;;2561391;52;21021;-72
2022/09/30 02:36:06;;;;;;;3.45;1.37;;;14.50;65.90;;;;;;2428398;52;20945;-73
2022/09/30 02:38:35;;;;;;;2.87;1.50;;;14.50;66.00;;;;;;2616951;52;21394;-74
2022/09/30 02:41:17;;;;;;;4.18;1.80;;;14.50;66.80;;;;;;2342829;54;20949;-72
2022/09/30 02:43:44;;;;;;;2.95;1.50;;;14.50;66.30;;;;;;2361552;53;20933;-72
2022/09/30 02:46:30;;;;;;;2.42;1.35;;;14.50;66.30;;;;;;2355248;53;20968;-74
2022/09/30 02:49:31;;;;;;;2.70;1.35;;;14.50;66.40;;;;;;2365634;53;21847;-72
2022/09/30 02:52:14;;;;;;;3.00;1.42;;;14.50;66.50;;;;;;2366293;53;20923;-72
2022/09/30 02:54:50;;;;;;;2.62;1.30;;;14.50;66.50;;;;;;2369018;53;20970;-73
2022/09/30 02:58:50;;;;;;;3.60;1.50;;;14.50;66.50;;;;;;2356269;53;21554;-74
2022/09/30 03:01:17;;;;;;;4.68;1.85;;;14.50;66.10;;;;;;2344253;53;20988;-74
2022/09/30 03:03:55;;;;;;;3.00;1.70;;;14.50;66.10;;;;;;2344550;53;21023;-72
2022/09/30 03:06:22;;;;;;;2.72;1.40;;;14.50;66.00;;;;;;2347931;53;21003;-74
2022/09/30 03:08:49;;;;;;;4.68;1.75;;;14.50;66.00;;;;;;2553438;52;21910;-73
2022/09/30 03:11:17;;;;;;;4.25;2.25;;;14.50;66.10;;;;;;2313115;54;21031;-73
2022/09/30 03:20:50;;;;;;;3.05;1.87;;;14.50;66.10;;;;;;2345132;53;20937;-74
2022/09/30 03:24:40;;;;;;;2.83;1.48;;;14.50;66.10;;;;;;2331368;53;21085;-73
2022/09/30 03:28:59;;;;;;;2.92;1.50;;;14.50;66.00;;;;;;2359040;52;20939;-74
2022/09/30 03:31:46;;;;;;;2.60;1.30;;;14.50;65.90;;;;;;2345926;53;21597;-72
2022/09/30 03:34:27;;;;;;;3.00;1.60;;;14.50;66.00;;;;;;2324809;54;20913;-72
2022/09/30 03:40:03;;;;;;;3.20;1.73;;;14.50;66.00;;;;;;2333726;53;20959;-74
2022/09/30 03:44:09;;;;;;;3.67;1.73;;;14.40;65.60;;;;;;2338593;53;21076;-74
2022/09/30 03:47:04;;;;;;;3.03;1.70;;;14.40;65.80;;;;;;2361774;53;21594;-73
2022/09/30 03:49:34;;;;;;;3.10;1.58;;;14.40;65.90;;;;;;2345265;53;20917;-72
2022/09/30 03:52:05;;;;;;;3.17;1.77;;;14.30;65.90;;;;;;2335733;53;21035;-73
2022/09/30 03:54:32;;;;;;;3.00;1.42;;;14.30;65.90;;;;;;2364321;53;20918;-72
2022/09/30 03:57:02;;;;;;;2.95;1.67;;;14.30;66.10;;;;;;2349415;53;21101;-73
2022/09/30 03:59:28;;;;;;;4.28;1.80;;;14.30;66.10;;;;;;2357854;53;21478;-73
2022/09/30 04:01:56;;;;;;;4.12;1.75;;;14.30;66.10;;;;;;2585547;52;21080;-72
2022/09/30 04:04:25;;;;;;;2.87;1.75;;;14.30;66.20;;;;;;2370051;53;20929;-72
2022/09/30 04:06:51;;;;;;;3.70;2.15;;;14.30;66.30;;;;;;2364521;53;21059;-73
2022/09/30 04:09:18;;;;;;;3.62;2.20;;;14.30;66.40;;;;;;2598904;52;21006;-74
2022/09/30 04:11:45;;;;;;;4.70;2.62;;;14.30;66.40;;;;;;2362448;53;21282;-73
2022/09/30 04:14:11;;;;;;;6.43;2.70;;;14.30;66.40;;;;;;2358773;53;21009;-72
2022/09/30 04:16:38;;;;;;;4.53;2.55;;;14.30;66.50;;;;;;2364262;53;21021;-74
2022/09/30 04:19:06;;;;;;;4.72;2.05;;;14.30;66.50;;;;;;2345262;53;20910;-74
2022/09/30 04:21:34;;;;;;;3.47;1.75;;;14.30;66.50;;;;;;2349380;53;20947;-73
2022/09/30 04:24:01;;;;;;;4.97;2.95;;;14.30;66.50;;;;;;2348066;53;20977;-74
2022/09/30 04:26:27;;;;;;;6.75;3.37;;;14.30;66.50;;;;;;2352700;53;21005;-74
2022/09/30 04:28:57;;;;;;;4.72;2.50;;;14.30;66.50;;;;;;2347682;53;21045;-73
2022/09/30 04:31:23;;;;;;;3.97;2.35;;;14.30;66.50;;;;;;2520745;52;21038;-74
2022/09/30 04:33:50;;;;;;;3.90;2.15;;;14.30;66.50;;;;;;2342985;53;21455;-74
2022/09/30 04:36:17;;;;;;;4.35;1.75;;;14.30;66.40;;;;;;2430915;53;21066;-74
2022/09/30 04:38:45;;;;;;;3.30;1.87;;;14.30;66.40;;;;;;2363166;53;20973;-72
2022/09/30 04:41:14;;;;;;;3.40;1.83;;;14.30;66.40;;;;;;2347987;53;21423;-74
2022/09/30 04:43:45;;;;;;;3.65;2.10;;;14.30;66.40;;;;;;2359971;53;21423;-73
2022/09/30 04:46:17;;;;;;;3.30;1.92;;;14.30;66.40;;;;;;2353376;53;20938;-74
2022/09/30 04:48:46;;;;;;;4.05;1.92;;;14.30;66.40;;;;;;2359126;53;21029;-72
2022/09/30 04:51:19;;;;;;;4.32;1.65;;;14.30;66.40;;;;;;2361793;53;20979;-72
2022/09/30 04:53:54;;;;;;;3.00;1.40;;;14.30;66.40;;;;;;2352038;53;20996;-73
2022/09/30 04:56:22;;;;;;;2.78;1.37;;;14.30;66.40;;;;;;2570411;52;20938;-74
2022/09/30 04:58:48;;;;;;;2.72;1.37;;;14.30;66.40;;;;;;2350174;53;21434;-74
2022/09/30 05:01:19;;;;;;;3.03;1.27;;;14.30;66.30;;;;;;2564694;52;21224;-74
2022/09/30 05:03:46;;;;;;;2.87;1.20;;;14.30;66.30;;;;;;2539086;52;21540;-73
2022/09/30 05:06:13;;;;;;;3.72;1.70;;;14.30;66.10;;;;;;2362101;53;21737;-73
2022/09/30 05:08:41;;;;;;;2.75;1.37;;;14.20;66.60;;;;;;2331960;53;20997;-72
2022/09/30 05:11:13;;;;;;;2.80;1.48;;;14.20;65.90;;;;;;2364512;53;20964;-73
2022/09/30 05:13:40;;;;;;;2.90;1.48;;;14.20;65.70;;;;;;2337190;53;21021;-72
2022/09/30 05:16:06;;;;;;;3.40;1.40;;;14.20;65.70;;;;;;2340803;53;20992;-73
2022/09/30 05:18:34;;;;;;;3.05;1.10;;;14.20;65.60;;;;;;2416961;52;20938;-73
2022/09/30 05:21:01;;;;;;;2.17;1.00;;;14.10;65.40;;;;;;2352894;53;21001;-74
2022/09/30 05:23:29;;;;;;;2.37;1.00;;;14.10;65.30;;;;;;2342927;53;20954;-73
2022/09/30 05:25:59;;;;;;;2.65;1.27;;;14.10;65.30;;;;;;2350939;53;22026;-73
2022/09/30 05:28:26;;;;;;;2.90;1.60;;;14.10;65.30;;;;;;2587449;52;20942;-73
2022/09/30 05:31:04;;;;;;;2.45;1.27;;;14.00;65.20;;;;;;2480882;52;21542;-72
2022/09/30 05:33:33;;;;;;;2.90;1.50;;;14.00;65.00;;;;;;2370608;53;21336;-72
2022/09/30 05:36:04;;;;;;;3.42;1.70;;;13.90;65.00;;;;;;2371180;53;20998;-73
2022/09/30 05:38:30;;;;;;;2.87;1.60;;;13.90;65.00;;;;;;2354596;53;20938;-73
2022/09/30 05:40:58;;;;;;;3.70;1.45;;;13.90;65.10;;;;;;2361348;53;21070;-73
2022/09/30 05:43:24;;;;;;;2.70;1.40;;;13.80;65.00;;;;;;2506299;53;21004;-74
2022/09/30 05:45:54;;;;;;;3.42;1.45;;;13.80;65.10;;;;;;2352964;53;21385;-73
2022/09/30 05:48:21;;;;;;;3.60;1.33;;;13.80;65.10;;;;;;2356487;53;20985;-73
2022/09/30 05:50:49;;;;;;;2.60;1.40;;;13.70;65.10;;;;;;2369245;53;21006;-72
2022/09/30 05:53:17;;;;;;;3.28;1.20;;;13.70;65.10;;;;;;2342603;53;20962;-72
2022/09/30 05:55:46;;;;;;;2.58;1.20;;;13.70;65.10;;;;;;2401813;53;21372;-73
2022/09/30 05:58:13;;;;;;;3.97;2.33;;;13.70;65.10;;;;;;2354369;53;21098;-72
2022/09/30 06:00:41;;;;;;;5.75;2.90;;;13.60;65.10;;;;;;2594892;52;20998;-71
2022/09/30 06:03:07;;;;;;;4.10;2.75;;;13.60;65.30;;;;;;2350184;53;21857;-73
2022/09/30 06:05:33;;;;;;;4.10;2.60;;;13.60;65.50;;;;;;2347630;53;20929;-72
2022/09/30 06:08:00;;;;;;;5.80;2.00;;;13.50;65.40;;;;;;2350927;53;21007;-72
2022/09/30 06:10:27;;;;;;;3.35;1.80;;;13.60;65.60;;;;;;2362964;53;21043;-73
2022/09/30 06:12:54;;;;;;;4.05;1.87;;;13.50;65.50;;;;;;2353483;53;20954;-72
2022/09/30 06:15:20;;;;;;;4.78;1.77;;;13.60;65.60;;;;;;2362378;53;20962;-73
2022/09/30 06:17:53;;;;;;;3.20;1.40;;;13.60;65.70;;;;;;2352896;53;20930;-72
2022/09/30 06:20:19;;;;;;;;;;;13.50;65.50;;;;;;2374410;53;20934;-72
2022/09/30 06:22:45;;;;;;;3.47;1.92;;;13.60;65.30;;;;;;2365403;53;20287;-71
2022/09/30 06:25:12;;;;;;;2.87;1.45;;;13.50;65.40;;;;;;2608736;52;20977;-72
2022/09/30 06:27:39;;;;;;;2.85;1.50;;;13.50;65.50;;;;;;2347833;53;21017;-74
2022/09/30 06:30:07;;;;;;;3.80;1.85;;;13.50;65.60;;;;;;2345029;53;20962;-73
2022/09/30 06:32:34;;;;;;;3.85;1.62;;;13.50;65.70;;;;;;2490682;52;20934;-71
2022/09/30 06:35:01;;;;;;;3.70;1.90;;;13.50;65.80;;;;;;2454454;52;20962;-73
2022/09/30 06:37:28;;;;;;;5.18;2.30;;;13.50;65.90;;;;;;2587441;52;20963;-73
2022/09/30 06:39:54;;;;;;;4.15;2.35;;;13.50;66.00;;;;;;2353229;53;20981;-72
2022/09/30 06:42:23;;;;;;;5.28;2.60;;;13.50;66.00;;;;;;2586836;52;21019;-73
2022/09/30 06:44:50;;;;;;;4.50;2.75;;;13.50;66.00;;;;;;2360353;53;20918;-74
2022/09/30 06:47:18;;;;;;;4.10;2.40;;;13.50;66.10;;;;;;2352331;53;21534;-72
2022/09/30 06:49:51;;;;;;;4.70;2.33;;;13.60;66.30;;;;;;2340519;53;20976;-73
2022/09/30 06:52:18;;;;;;;5.10;2.97;;;13.60;66.30;;;;;;2501336;53;21285;-71
2022/09/30 06:54:50;;;;;;;4.90;3.40;;;13.60;66.30;;;;;;2371784;53;20952;-72
2022/09/30 06:57:21;;;;;;;4.97;3.33;;;13.60;66.40;;;;;;2594939;52;21010;-72
2022/09/30 06:59:48;;;;;;;7.40;3.55;;;13.60;66.40;;;;;;2601810;52;20971;-72
2022/09/30 07:02:15;;;;;;;5.00;3.17;;;13.60;66.50;;;;;;2587148;52;20973;-72
2022/09/30 07:04:42;;;;;;;4.53;2.92;;;13.70;66.60;;;;;;2367968;53;20954;-73
2022/09/30 07:07:09;;;;;;;4.70;3.00;;;13.70;66.60;;;;;;2354712;53;21034;-72
2022/09/30 07:09:37;;;;;;;5.35;3.10;;;13.70;66.60;;;;;;2356071;53;20914;-72
2022/09/30 07:12:05;;;;;;;4.60;2.78;;;13.80;66.80;;;;;;2380595;53;20990;-74
2022/09/30 07:14:32;;;;;;;5.12;3.15;;;13.80;66.80;;;;;;2366312;53;20970;-73
2022/09/30 07:16:58;;;;;;;8.95;4.28;;;13.80;66.80;;;;;;2348633;53;21058;-72
2022/09/30 07:19:25;;;;;;;6.05;4.00;;;13.80;66.80;;;;;;2367635;53;20982;-72
2022/09/30 07:22:25;;;;;;;5.28;3.25;;;13.90;67.00;;;;;;2370058;53;21066;-72
2022/09/30 07:24:52;;;;;;;4.95;3.12;;;13.90;66.90;;;;;;2350413;53;21808;-73
2022/09/30 07:27:19;;;;;;;6.30;3.85;;;13.90;66.90;;;;;;2354870;53;20927;-73
2022/09/30 07:29:46;;;;;;;5.32;3.47;;;13.90;66.90;;;;;;2372614;53;21681;-71
2022/09/30 07:32:42;;;;;;;6.20;3.62;;;14.00;67.00;;;;;;2497602;52;20947;-73
2022/09/30 07:35:08;;;;;;;6.22;4.22;;;14.00;66.90;;;;;;2367390;53;20929;-74
2022/09/30 07:37:35;;;;;;;5.85;3.70;;;14.00;66.90;;;;;;2345386;53;21055;-74
2022/09/30 07:40:03;;;;;;;6.12;3.65;;;14.10;67.00;;;;;;2364584;53;21785;-73
2022/09/30 07:42:30;;;;;;;5.30;3.58;;;14.10;67.70;;;;;;2351018;53;21036;-74
2022/09/30 07:45:00;;;;;;;5.62;3.58;;;14.10;67.00;;;;;;2478903;52;20982;-72
2022/09/30 07:47:27;;;;;;;6.20;3.50;;;14.20;67.10;;;;;;2585849;52;20958;-72
2022/09/30 07:49:54;;;;;;;4.53;3.00;;;14.20;67.10;;;;;;2356933;53;21879;-72
2022/09/30 07:52:21;;;;;;;7.62;3.85;;;14.20;67.10;;;;;;2445249;53;21550;-72
2022/09/30 07:54:47;;;;;;;6.30;4.03;;;14.20;67.00;;;;;;2354882;53;20986;-74
2022/09/30 07:57:16;;;;;;;7.03;4.18;;;14.30;67.10;;;;;;2470277;52;20926;-72
2022/09/30 07:59:42;;;;;;;6.68;3.65;;;14.30;67.10;;;;;;2354894;53;20946;-73
2022/09/30 08:02:17;;;;;;;5.78;4.00;;;14.30;67.10;;;;;;2350767;53;21014;-72
2022/09/30 08:04:45;;;;;;;5.57;3.95;;;14.30;67.10;;;;;;2354847;53;20985;-72
2022/09/30 08:07:12;;;;;;;5.40;3.50;;;14.30;67.10;;;;;;2355100;53;21494;-71
2022/09/30 08:09:40;;;;;;;5.68;2.72;;;14.40;67.20;;;;;;2602205;52;20938;-71
2022/09/30 08:12:07;;;;;;;5.20;3.30;;;14.40;67.20;;;;;;2348450;53;21013;-71
2022/09/30 08:14:33;;;;;;;5.55;3.70;;;14.50;67.30;;;;;;2368713;53;20942;-74
2022/09/30 08:17:00;;;;;;;5.80;3.47;;;14.50;67.10;;;;;;2360701;53;20994;-74
2022/09/30 08:19:28;;;;;;;5.35;3.20;;;14.50;66.90;;;;;;2502825;52;21909;-72
2022/09/30 08:21:55;;;;;;;5.45;3.37;;;14.50;66.70;;;;;;2345331;53;20939;-74
2022/09/30 08:24:24;;;;;;;5.30;3.25;;;14.50;66.60;;;;;;2346815;53;21020;-72
2022/09/30 08:26:51;;;;;;;5.68;3.97;;;14.50;66.50;;;;;;2484479;53;21026;-72
2022/09/30 08:29:17;;;;;;;5.37;3.62;;;14.50;66.40;;;;;;2601603;52;20966;-73
2022/09/30 08:31:45;;;;;;;5.37;3.83;;;14.50;66.40;;;;;;2584951;52;21858;-73
2022/09/30 08:34:12;;;;;;;7.82;4.80;;;14.50;66.40;;;;;;2359123;53;20966;-74
2022/09/30 08:36:39;;;;;;;7.03;4.65;;;14.40;66.30;;;;;;2353022;53;20990;-72
2022/09/30 08:39:05;;;;;;;7.47;4.35;;;14.50;66.40;;;;;;2360720;53;20998;-73
2022/09/30 08:44:55;;;;;;;5.80;3.72;;;14.50;66.50;;;;;;2442133;52;21002;-72
2022/09/30 08:50:38;;;;;;;6.00;3.15;;;14.50;66.50;;;;;;2370329;53;21701;-74
2022/09/30 08:53:07;;;;;;;3.92;2.45;;;14.50;66.80;;;;;;2369330;53;20962;-72
2022/09/30 08:55:44;;;;;;;5.15;3.22;;;14.40;66.00;;;;;;2597070;52;20923;-74
2022/09/30 08:58:31;;;;;;;5.18;3.15;;;14.50;66.00;;;;;;2349321;53;21042;-73
2022/09/30 09:01:08;;;;;;;4.30;2.97;;;14.40;66.00;;;;;;2540268;52;21034;-72
2022/09/30 09:03:34;;;;;;;5.15;3.30;;;14.40;66.10;;;;;;2357100;53;20981;-72
2022/09/30 09:06:15;;;;;;;5.28;3.25;;;14.40;66.20;;;;;;2370000;53;20926;-72
2022/09/30 09:10:15;;;;;;;4.50;2.78;;;14.40;66.20;;;;;;2350650;53;20936;-73
2022/09/30 09:13:49;;;;;;;5.62;3.25;;;14.40;66.20;;;;;;2507874;52;20918;-73
2022/09/30 09:16:26;;;;;;;4.62;2.58;;;14.40;66.30;;;;;;2369267;53;21025;-72
2022/09/30 09:19:24;;;;;;;4.65;2.90;;;14.40;66.50;;;;;;2592326;52;20934;-72
2022/09/30 09:22:00;;;;;;;4.78;2.65;;;14.40;66.50;;;;;;2370217;53;20934;-73
2022/09/30 09:24:37;;;;;;;4.05;2.55;;;14.50;66.60;;;;;;2555548;52;20935;-73
2022/09/30 09:27:17;;;;;;;4.18;2.47;;;14.40;66.60;;;;;;2586039;52;21029;-74
2022/09/30 09:30:46;;;;;;;4.00;2.50;;;14.50;66.70;;;;;;2401705;52;1399466;-72
2022/09/30 09:33:21;;;;;;;4.57;2.78;;;14.50;66.60;;;;;;2369801;53;20994;-73
2022/09/30 09:36:08;;;;;;;4.05;2.50;;;14.50;66.70;;;;;;2589963;52;20899;-73
2022/09/30 09:42:03;;;;;;;3.45;2.40;;;14.60;66.80;;;;;;2354888;53;21023;-74
2022/09/30 09:45:04;;;;;;;4.80;2.15;;;14.60;66.70;;;;;;2370663;53;21952;-73
2022/09/30 09:47:30;;;;;;;3.72;2.37;;;14.70;66.90;;;;;;2373252;53;21447;-73
2022/09/30 09:49:58;;;;;;;3.58;2.37;;;14.70;67.00;;;;;;2371544;53;20918;-73
2022/09/30 09:52:57;;;;;;;3.97;2.62;;;14.70;67.00;;;;;;2443269;52;20902;-72
2022/09/30 09:55:23;;;;;;;4.78;2.97;;;14.80;66.90;;;;;;2371359;53;21009;-72
2022/09/30 10:01:39;;;;;;;4.85;3.55;;;14.80;66.90;;;;;;2366849;53;21475;-72
2022/09/30 10:04:17;;;;;;;3.53;2.12;;;14.90;66.30;;;;;;2370947;53;20913;-73
2022/09/30 10:07:00;;;;;;;5.00;2.75;;;14.90;66.40;;;;;;2622153;52;21371;-74
2022/09/30 10:09:39;;;;;;;4.62;2.78;;;14.90;66.40;;;;;;2369630;53;21475;-72
2022/09/30 10:12:18;;;;;;;4.80;2.58;;;14.90;66.50;;;;;;2370478;53;21325;-74
2022/09/30 10:14:56;;;;;;;3.83;2.30;;;15.00;66.60;;;;;;2370363;53;20919;-72
2022/09/30 10:17:33;;;;;;;4.25;2.75;;;15.00;66.70;;;;;;2370861;53;20966;-73
2022/09/30 10:21:18;;;;;;;6.15;3.28;;;15.00;66.60;;;;;;2623513;52;20919;-72
2022/09/30 10:23:44;;;;;;;3.97;2.17;;;15.10;66.80;;;;;;2370691;53;21003;-72
2022/09/30 10:26:23;;;;;;;4.43;3.12;;;15.10;66.90;;;;;;2471814;52;20950;-72
2022/09/30 10:28:54;;;;;;;3.95;2.67;;;15.20;66.90;;;;;;2370540;53;20909;-73
2022/09/30 10:31:41;;;;;;;4.45;2.72;;;15.20;67.60;;;;;;2382404;52;21010;-73
2022/09/30 10:34:27;;;;;;;3.55;2.33;;;15.30;66.80;;;;;;2519969;52;20954;-73
2022/09/30 10:36:55;;;;;;;3.83;2.58;;;15.30;67.00;;;;;;2354813;53;21050;-72
2022/09/30 10:39:31;;;;;;;5.53;2.78;;;15.40;67.20;;;;;;2365305;53;21200;-72
2022/09/30 10:42:20;;;;;;;4.32;2.95;;;15.40;67.10;;;;;;2369738;53;20911;-73
2022/09/30 10:45:00;;;;;;;6.15;3.33;;;15.50;67.20;;;;;;2370538;53;21630;-72
2022/09/30 10:47:30;;;;;;;4.68;3.10;;;15.60;67.00;;;;;;2361608;53;20967;-74
2022/09/30 10:50:07;;;;;;;4.37;2.75;;;15.60;66.90;;;;;;2601809;52;20926;-72
2022/09/30 10:52:36;;;;;;;5.95;3.20;;;15.70;66.90;;;;;;2366085;53;21045;-74
2022/09/30 10:55:53;;;;;;;3.75;2.58;;;15.70;66.80;;;;;;2589377;52;20932;-72
2022/09/30 10:58:24;;;;;;;4.25;2.20;;;15.70;66.70;;;;;;2567645;52;20938;-72
2022/09/30 11:01:45;;;;;;;7.62;3.58;;;15.80;66.90;;;;;;2428179;52;20981;-73
2022/09/30 11:06:15;;;;;;;5.50;3.05;;;15.90;66.80;;;;;;2524989;52;21826;-74
2022/09/30 11:09:34;;;;;;;3.90;2.58;;;16.00;66.90;;;;;;2617816;52;20974;-73
2022/09/30 11:12:09;;;;;;;4.32;2.28;;;16.00;67.00;;;;;;2418220;52;20949;-73
2022/09/30 11:14:56;;;;;;;5.70;2.97;;;16.10;67.10;;;;;;2346529;53;22015;-74
2022/09/30 11:17:37;;;;;;;4.70;3.15;;;16.10;67.20;;;;;;2603380;53;21482;-72
2022/09/30 11:20:37;;;;;;;5.93;3.00;;;16.20;66.90;;;;;;2343020;53;21460;-73
2022/09/30 11:23:43;;;;;;;5.03;3.30;;;16.20;66.70;;;;;;2362194;53;20955;-73
2022/09/30 11:28:57;;;;;;;5.40;3.03;;;16.30;66.90;;;;;;2351047;53;20949;-74
2022/09/30 11:31:30;;;;;;;3.95;2.70;;;16.40;66.60;;;;;;2327006;53;21037;-73
2022/09/30 11:34:42;;;;;;;4.03;2.70;;;16.40;66.80;;;;;;2352327;53;21449;-75
2022/09/30 11:40:54;;;;;;;4.55;3.05;;;16.50;66.80;;;;;;2329991;53;20948;-73
2022/09/30 11:43:51;;;;;;;5.18;2.92;;;16.50;66.60;;;;;;2349295;53;21008;-73
2022/09/30 11:46:25;;;;;;;4.60;2.58;;;16.60;66.70;;;;;;2324619;53;20924;-73
2022/09/30 11:50:05;;;;;;;6.25;4.30;;;16.70;67.00;;;;;;2322388;53;21359;-73
2022/09/30 11:53:39;;;;;;;3.92;2.72;;;16.70;66.90;;;;;;2325188;53;20944;-72
2022/09/30 11:59:51;;;;;;;4.80;3.28;;;16.80;66.70;;;;;;2325031;53;21356;-72
2022/09/30 12:03:45;;;;;;;4.75;3.12;;;16.80;66.90;;;;;;2325629;53;20980;-73
2022/09/30 12:06:27;;;;;;;4.95;2.80;;;17.00;66.60;;;;;;2353242;53;22290;-73
2022/09/30 12:09:05;;;;;;;4.97;3.40;;;17.10;66.80;;;;;;2571570;52;21113;-74
2022/09/30 12:12:16;;;;;;;4.65;3.28;;;17.10;67.10;;;;;;2421375;52;21438;-74
2022/09/30 12:14:50;;;;;;;4.32;2.78;;;17.10;67.00;;;;;;2351150;53;20946;-73
2022/09/30 12:17:36;;;;;;;4.20;2.65;;;17.20;66.70;;;;;;2407084;52;20938;-73
2022/09/30 12:20:40;;;;;;;5.18;3.25;;;17.20;66.60;;;;;;2353000;53;21056;-73
2022/09/30 12:35:57;;;;;;;3.87;2.28;;;17.40;66.30;;;;;;2573622;52;20970;-73
2022/09/30 12:40:24;;;;;;;4.62;2.12;;;17.50;66.00;;;;;;2549479;52;21130;-73
2022/09/30 12:46:00;;;;;;;3.28;1.67;;;17.60;65.80;;;;;;2329538;53;20967;-74
2022/09/30 12:48:48;;;;;;;3.45;1.73;;;17.70;65.80;;;;;;2355499;53;20939;-72
2022/09/30 12:51:27;;;;;;;3.70;2.10;;;17.70;66.30;;;;;;2453477;52;21449;-75
2022/09/30 12:53:58;;;;;;;4.10;2.10;;;17.80;66.10;;;;;;2350138;53;21033;-73
2022/09/30 12:56:26;;;;;;;3.00;1.48;;;17.80;66.30;;;;;;2353035;53;20935;-74
2022/09/30 12:58:52;;;;;;;3.47;1.65;;;17.80;66.20;;;;;;2351568;53;21014;-75
2022/09/30 13:01:29;;;;;;;2.78;1.40;;;17.80;66.20;;;;;;2353086;53;21022;-74
2022/09/30 13:04:38;;;;;;;4.25;1.73;;;17.90;65.90;;;;;;2604096;52;20930;-74
2022/09/30 13:07:07;;;;;;;2.45;1.33;;;18.00;65.40;;;;;;2352749;53;20982;-74
2022/09/30 13:09:34;;;;;;;3.35;1.25;;;18.00;65.90;;;;;;2353095;53;20978;-75
2022/09/30 13:12:26;;;;;;;2.60;1.30;;;18.00;65.80;;;;;;2353239;53;20974;-74
2022/09/30 13:16:20;;;;;;;2.92;1.50;;;18.10;65.00;;;;;;2353255;53;21002;-74
2022/09/30 13:19:17;;;;;;;3.08;1.17;;;18.20;65.10;;;;;;2354148;53;21117;-74
2022/09/30 13:21:43;;;;;;;2.78;1.40;;;18.20;65.80;;;;;;2353582;53;21350;-74
2022/09/30 13:24:10;;;;;;;2.50;1.20;;;18.30;65.60;;;;;;2353259;53;20966;-75
2022/09/30 13:26:40;;;;;;;5.15;1.45;;;18.30;65.30;;;;;;2352412;53;20914;-75
2022/09/30 13:29:45;;;;;;;2.97;1.40;;;18.30;64.50;;;;;;2353410;53;20966;-74
2022/09/30 13:32:13;;;;;;;3.87;1.50;;;18.40;63.50;;;;;;2352776;53;21033;-74
2022/09/30 13:34:54;;;;;;;3.40;1.55;;;18.40;64.60;;;;;;2353222;53;21252;-73
2022/09/30 13:37:31;;;;;;;3.25;1.70;;;18.50;63.50;;;;;;2351954;53;20943;-72
2022/09/30 13:39:57;;;;;;;2.75;1.20;;;18.50;64.00;;;;;;2352293;53;22270;-75
2022/09/30 13:42:28;;;;;;;2.40;1.10;;;18.50;64.30;;;;;;2352599;53;21034;-72
2022/09/30 13:45:26;;;;;;;2.78;1.12;;;18.50;63.90;;;;;;2573888;52;20981;-74
2022/09/30 13:48:10;;;;;;;2.60;1.08;;;18.50;63.10;;;;;;2546442;52;20933;-74
2022/09/30 13:50:58;;;;;;;2.55;1.15;;;18.60;63.40;;;;;;2349906;53;20978;-74
2022/09/30 13:53:32;;;;;;;2.70;1.10;;;18.60;62.60;;;;;;2353082;53;21005;-74
2022/09/30 13:56:00;;;;;;;2.30;1.00;;;18.60;63.50;;;;;;2600114;52;21049;-73
2022/09/30 13:59:41;;;;;;;2.87;1.27;;;18.70;63.60;;;;;;2351291;53;21980;-73
2022/09/30 14:02:45;;;;;;;2.58;1.00;;;18.70;62.20;;;;;;2353404;53;20917;-74
2022/09/30 14:05:22;;;;;;;2.50;1.10;;;18.80;62.80;;;;;;2353868;53;21533;-73
2022/09/30 14:08:30;;;;;;;1.85;0.85;;;18.80;63.20;;;;;;2353456;53;20970;-73
2022/09/30 14:11:50;;;;;;;1.87;0.95;;;18.80;62.70;;;;;;2350897;53;20994;-74
2022/09/30 14:14:47;;;;;;;3.28;1.20;;;18.90;63.50;;;;;;2351781;53;20917;-73
2022/09/30 14:17:50;;;;;;;3.92;1.50;;;18.90;62.40;;;;;;2351669;53;21090;-78
2022/09/30 14:20:58;;;;;;;3.22;1.40;;;18.90;61.80;;;;;;2602815;52;20910;-74
2022/09/30 14:23:24;;;;;;;23.33;4.87;;;19.00;62.00;;;;;;2333333;54;20947;-74
2022/09/30 14:29:35;;;;;;;8.75;2.67;;;19.00;63.00;;;;;;2603661;52;20930;-72
2022/09/30 14:33:12;;;;;;;3.00;1.42;;;19.00;61.90;;;;;;2604310;52;20930;-72
2022/09/30 14:35:40;;;;;;;2.58;1.20;;;19.10;62.10;;;;;;2353178;53;20933;-73
2022/09/30 14:38:22;;;;;;;2.95;1.37;;;19.10;62.50;;;;;;2520547;52;20962;-74
2022/09/30 14:40:52;;;;;;;;;;;19.10;61.60;;;;;;2338555;53;20930;-74
2022/09/30 14:43:21;;;;;;;4.07;2.17;;;19.10;61.50;;;;;;2569884;52;20074;-73
2022/09/30 14:45:50;;;;;;;4.60;2.20;;;19.10;62.20;;;;;;2353026;53;20974;-73
2022/09/30 14:48:28;;;;;;;3.85;2.20;;;19.10;62.10;;;;;;2429009;52;21429;-73
2022/09/30 14:51:00;;;;;;;4.10;2.22;;;19.10;62.00;;;;;;2604348;52;21574;-75